sensor_id;sensor_type;location;lat;lon;timestamp;P1;durP1;ratioP1;P2;durP2;ratioP2
16673;SDS011;8450;52.654;10.326;2024-01-16T00:01:07;2.80;;;2.17;;
16673;SDS011;8450;52.654;10.326;2024-01-16T00:03:33;3.93;;;2.87;;
16673;SDS011;8450;52.654;10.326;2024-01-16T00:06:00;4.13;;;3.20;;
16673;SDS011;8450;52.654;10.326;2024-01-16T00:08:25;5.73;;;3.60;;
16673;SDS011;8450;52.654;10.326;2024-01-16T00:10:51;4.30;;;1.70;;
16673;SDS011;8450;52.654;10.326;2024-01-16T00:13:16;4.07;;;3.10;;
16673;SDS011;8450;52.654;10.326;2024-01-16T00:15:42;1.43;;;0.87;;
16673;SDS011;8450;52.654;10.326;2024-01-16T00:18:08;5.77;;;3.70;;
16673;SDS011;8450;52.654;10.326;2024-01-16T00:20:34;4.47;;;2.97;;
16673;SDS011;8450;52.654;10.326;2024-01-16T00:23:00;3.63;;;3.20;;
16673;SDS011;8450;52.654;10.326;2024-01-16T00:25:25;5.63;;;3.60;;
16673;SDS011;8450;52.654;10.326;2024-01-16T00:27:51;5.07;;;3.00;;
16673;SDS011;8450;52.654;10.326;2024-01-16T00:30:17;11.10;;;3.80;;
16673;SDS011;8450;52.654;10.326;2024-01-16T00:32:43;4.40;;;3.50;;
16673;SDS011;8450;52.654;10.326;2024-01-16T00:35:08;6.77;;;3.57;;
16673;SDS011;8450;52.654;10.326;2024-01-16T00:37:35;4.83;;;3.00;;
16673;SDS011;8450;52.654;10.326;2024-01-16T00:40:01;7.60;;;3.33;;
16673;SDS011;8450;52.654;10.326;2024-01-16T00:42:29;4.20;;;3.10;;
16673;SDS011;8450;52.654;10.326;2024-01-16T00:44:55;7.80;;;3.30;;
16673;SDS011;8450;52.654;10.326;2024-01-16T00:47:21;5.03;;;3.20;;
16673;SDS011;8450;52.654;10.326;2024-01-16T00:49:46;4.33;;;2.80;;
16673;SDS011;8450;52.654;10.326;2024-01-16T00:52:12;2.93;;;2.03;;
16673;SDS011;8450;52.654;10.326;2024-01-16T00:54:38;5.83;;;3.00;;
16673;SDS011;8450;52.654;10.326;2024-01-16T00:57:04;5.83;;;2.60;;
16673;SDS011;8450;52.654;10.326;2024-01-16T00:59:30;5.90;;;2.63;;
16673;SDS011;8450;52.654;10.326;2024-01-16T01:01:56;2.77;;;2.37;;
16673;SDS011;8450;52.654;10.326;2024-01-16T01:04:21;2.53;;;2.17;;
16673;SDS011;8450;52.654;10.326;2024-01-16T01:06:47;3.23;;;2.33;;
16673;SDS011;8450;52.654;10.326;2024-01-16T01:09:12;7.23;;;2.60;;
16673;SDS011;8450;52.654;10.326;2024-01-16T01:11:38;5.50;;;2.77;;
16673;SDS011;8450;52.654;10.326;2024-01-16T01:14:04;3.83;;;2.37;;
16673;SDS011;8450;52.654;10.326;2024-01-16T01:16:29;4.97;;;2.53;;
16673;SDS011;8450;52.654;10.326;2024-01-16T01:18:55;3.70;;;2.80;;
16673;SDS011;8450;52.654;10.326;2024-01-16T01:21:21;5.00;;;2.20;;
16673;SDS011;8450;52.654;10.326;2024-01-16T01:23:46;5.70;;;2.73;;
16673;SDS011;8450;52.654;10.326;2024-01-16T01:26:12;2.73;;;2.30;;
16673;SDS011;8450;52.654;10.326;2024-01-16T01:28:43;7.53;;;2.10;;
16673;SDS011;8450;52.654;10.326;2024-01-16T01:31:10;4.23;;;2.60;;
16673;SDS011;8450;52.654;10.326;2024-01-16T01:33:36;4.03;;;2.20;;
16673;SDS011;8450;52.654;10.326;2024-01-16T01:36:02;4.57;;;2.67;;
16673;SDS011;8450;52.654;10.326;2024-01-16T01:38:27;3.13;;;2.40;;
16673;SDS011;8450;52.654;10.326;2024-01-16T01:40:53;4.17;;;2.53;;
16673;SDS011;8450;52.654;10.326;2024-01-16T01:43:19;3.90;;;1.97;;
16673;SDS011;8450;52.654;10.326;2024-01-16T01:48:35;3.43;;;2.50;;
16673;SDS011;8450;52.654;10.326;2024-01-16T01:51:05;3.03;;;2.30;;
16673;SDS011;8450;52.654;10.326;2024-01-16T01:53:31;2.63;;;2.23;;
16673;SDS011;8450;52.654;10.326;2024-01-16T01:55:58;5.27;;;2.80;;
16673;SDS011;8450;52.654;10.326;2024-01-16T01:58:26;3.70;;;2.90;;
16673;SDS011;8450;52.654;10.326;2024-01-16T02:00:52;3.83;;;2.53;;
16673;SDS011;8450;52.654;10.326;2024-01-16T02:03:18;3.23;;;2.17;;
16673;SDS011;8450;52.654;10.326;2024-01-16T02:05:45;3.37;;;2.90;;
16673;SDS011;8450;52.654;10.326;2024-01-16T02:08:10;5.43;;;2.67;;
16673;SDS011;8450;52.654;10.326;2024-01-16T02:10:37;6.00;;;2.97;;
16673;SDS011;8450;52.654;10.326;2024-01-16T02:13:04;3.67;;;2.43;;
16673;SDS011;8450;52.654;10.326;2024-01-16T02:15:29;7.70;;;2.70;;
16673;SDS011;8450;52.654;10.326;2024-01-16T02:17:56;4.57;;;3.17;;
16673;SDS011;8450;52.654;10.326;2024-01-16T02:20:22;8.97;;;3.63;;
16673;SDS011;8450;52.654;10.326;2024-01-16T02:22:48;4.80;;;3.37;;
16673;SDS011;8450;52.654;10.326;2024-01-16T02:25:17;3.30;;;2.83;;
16673;SDS011;8450;52.654;10.326;2024-01-16T02:27:42;3.87;;;3.10;;
16673;SDS011;8450;52.654;10.326;2024-01-16T02:30:08;8.00;;;3.53;;
16673;SDS011;8450;52.654;10.326;2024-01-16T02:32:34;4.77;;;4.27;;
16673;SDS011;8450;52.654;10.326;2024-01-16T02:34:59;6.37;;;3.40;;
16673;SDS011;8450;52.654;10.326;2024-01-16T02:37:25;6.00;;;3.67;;
16673;SDS011;8450;52.654;10.326;2024-01-16T02:39:50;7.87;;;3.80;;
16673;SDS011;8450;52.654;10.326;2024-01-16T02:42:16;3.20;;;2.63;;
16673;SDS011;8450;52.654;10.326;2024-01-16T02:44:41;5.70;;;3.47;;
16673;SDS011;8450;52.654;10.326;2024-01-16T02:47:07;7.97;;;4.43;;
16673;SDS011;8450;52.654;10.326;2024-01-16T02:49:33;6.73;;;3.57;;
16673;SDS011;8450;52.654;10.326;2024-01-16T02:51:58;5.90;;;4.17;;
16673;SDS011;8450;52.654;10.326;2024-01-16T02:54:24;5.50;;;3.97;;
16673;SDS011;8450;52.654;10.326;2024-01-16T02:56:50;5.80;;;3.73;;
16673;SDS011;8450;52.654;10.326;2024-01-16T02:59:15;7.40;;;4.10;;
16673;SDS011;8450;52.654;10.326;2024-01-16T03:01:41;3.63;;;2.77;;
16673;SDS011;8450;52.654;10.326;2024-01-16T03:04:08;6.80;;;2.97;;
16673;SDS011;8450;52.654;10.326;2024-01-16T03:06:34;4.43;;;2.80;;
16673;SDS011;8450;52.654;10.326;2024-01-16T03:08:59;3.33;;;2.90;;
16673;SDS011;8450;52.654;10.326;2024-01-16T03:11:25;3.43;;;2.93;;
16673;SDS011;8450;52.654;10.326;2024-01-16T03:13:51;3.30;;;2.77;;
16673;SDS011;8450;52.654;10.326;2024-01-16T03:16:18;2.80;;;2.43;;
16673;SDS011;8450;52.654;10.326;2024-01-16T03:18:43;2.60;;;2.30;;
16673;SDS011;8450;52.654;10.326;2024-01-16T03:21:10;1.67;;;1.50;;
16673;SDS011;8450;52.654;10.326;2024-01-16T03:23:36;2.80;;;2.47;;
16673;SDS011;8450;52.654;10.326;2024-01-16T03:26:01;2.27;;;1.80;;
16673;SDS011;8450;52.654;10.326;2024-01-16T03:28:28;2.50;;;2.30;;
16673;SDS011;8450;52.654;10.326;2024-01-16T03:30:54;3.07;;;1.80;;
16673;SDS011;8450;52.654;10.326;2024-01-16T03:33:19;3.40;;;1.87;;
16673;SDS011;8450;52.654;10.326;2024-01-16T03:35:45;3.03;;;2.03;;
16673;SDS011;8450;52.654;10.326;2024-01-16T03:38:10;3.03;;;2.03;;
16673;SDS011;8450;52.654;10.326;2024-01-16T03:40:36;4.50;;;1.97;;
16673;SDS011;8450;52.654;10.326;2024-01-16T03:43:02;3.27;;;1.47;;
16673;SDS011;8450;52.654;10.326;2024-01-16T03:45:28;2.47;;;1.90;;
16673;SDS011;8450;52.654;10.326;2024-01-16T03:47:53;1.60;;;1.50;;
16673;SDS011;8450;52.654;10.326;2024-01-16T03:50:19;4.30;;;2.00;;
16673;SDS011;8450;52.654;10.326;2024-01-16T03:52:44;2.37;;;1.67;;
16673;SDS011;8450;52.654;10.326;2024-01-16T03:55:10;1.97;;;1.60;;
16673;SDS011;8450;52.654;10.326;2024-01-16T03:57:35;4.63;;;2.80;;
16673;SDS011;8450;52.654;10.326;2024-01-16T04:00:01;4.83;;;2.03;;
16673;SDS011;8450;52.654;10.326;2024-01-16T04:02:29;4.47;;;2.43;;
16673;SDS011;8450;52.654;10.326;2024-01-16T04:04:55;5.17;;;1.70;;
16673;SDS011;8450;52.654;10.326;2024-01-16T04:07:22;2.03;;;1.80;;
16673;SDS011;8450;52.654;10.326;2024-01-16T04:09:48;3.07;;;2.10;;
16673;SDS011;8450;52.654;10.326;2024-01-16T04:12:14;2.60;;;2.00;;
16673;SDS011;8450;52.654;10.326;2024-01-16T04:14:39;2.73;;;1.60;;
16673;SDS011;8450;52.654;10.326;2024-01-16T04:17:05;1.70;;;1.60;;
16673;SDS011;8450;52.654;10.326;2024-01-16T04:19:31;4.17;;;2.40;;
16673;SDS011;8450;52.654;10.326;2024-01-16T04:21:58;3.73;;;2.10;;
16673;SDS011;8450;52.654;10.326;2024-01-16T04:24:25;2.40;;;2.00;;
16673;SDS011;8450;52.654;10.326;2024-01-16T04:26:51;4.80;;;1.87;;
16673;SDS011;8450;52.654;10.326;2024-01-16T04:29:16;3.07;;;2.73;;
16673;SDS011;8450;52.654;10.326;2024-01-16T04:31:42;4.57;;;2.70;;
16673;SDS011;8450;52.654;10.326;2024-01-16T04:34:08;3.40;;;3.00;;
16673;SDS011;8450;52.654;10.326;2024-01-16T04:36:34;5.23;;;3.10;;
16673;SDS011;8450;52.654;10.326;2024-01-16T04:39:00;9.20;;;3.00;;
16673;SDS011;8450;52.654;10.326;2024-01-16T04:41:25;4.20;;;2.97;;
16673;SDS011;8450;52.654;10.326;2024-01-16T04:43:51;4.73;;;3.13;;
16673;SDS011;8450;52.654;10.326;2024-01-16T04:46:17;4.67;;;2.87;;
16673;SDS011;8450;52.654;10.326;2024-01-16T04:48:42;6.87;;;3.10;;
16673;SDS011;8450;52.654;10.326;2024-01-16T04:51:08;6.73;;;3.37;;
16673;SDS011;8450;52.654;10.326;2024-01-16T04:53:34;4.47;;;2.97;;
16673;SDS011;8450;52.654;10.326;2024-01-16T04:55:59;7.53;;;3.27;;
16673;SDS011;8450;52.654;10.326;2024-01-16T04:58:25;5.50;;;3.40;;
16673;SDS011;8450;52.654;10.326;2024-01-16T05:00:50;3.80;;;2.33;;
16673;SDS011;8450;52.654;10.326;2024-01-16T05:03:16;12.00;;;4.67;;
16673;SDS011;8450;52.654;10.326;2024-01-16T05:05:42;9.53;;;3.87;;
16673;SDS011;8450;52.654;10.326;2024-01-16T05:08:08;4.43;;;3.40;;
16673;SDS011;8450;52.654;10.326;2024-01-16T05:10:34;3.23;;;1.77;;
16673;SDS011;8450;52.654;10.326;2024-01-16T05:12:59;6.50;;;3.30;;
16673;SDS011;8450;52.654;10.326;2024-01-16T05:15:25;5.00;;;3.17;;
16673;SDS011;8450;52.654;10.326;2024-01-16T05:17:51;6.30;;;3.40;;
16673;SDS011;8450;52.654;10.326;2024-01-16T05:20:18;2.70;;;1.97;;
16673;SDS011;8450;52.654;10.326;2024-01-16T05:22:44;8.10;;;4.20;;
16673;SDS011;8450;52.654;10.326;2024-01-16T05:25:09;8.33;;;3.50;;
16673;SDS011;8450;52.654;10.326;2024-01-16T05:27:35;11.83;;;3.77;;
16673;SDS011;8450;52.654;10.326;2024-01-16T05:30:00;7.23;;;3.43;;
16673;SDS011;8450;52.654;10.326;2024-01-16T05:32:26;9.43;;;3.20;;
16673;SDS011;8450;52.654;10.326;2024-01-16T05:34:52;10.47;;;3.67;;
16673;SDS011;8450;52.654;10.326;2024-01-16T05:37:18;4.13;;;3.20;;
16673;SDS011;8450;52.654;10.326;2024-01-16T05:39:44;3.07;;;2.57;;
16673;SDS011;8450;52.654;10.326;2024-01-16T05:42:11;10.47;;;3.87;;
16673;SDS011;8450;52.654;10.326;2024-01-16T05:44:37;7.20;;;3.77;;
16673;SDS011;8450;52.654;10.326;2024-01-16T05:47:03;8.83;;;5.20;;
16673;SDS011;8450;52.654;10.326;2024-01-16T05:49:29;5.47;;;2.93;;
16673;SDS011;8450;52.654;10.326;2024-01-16T05:51:55;10.70;;;4.23;;
16673;SDS011;8450;52.654;10.326;2024-01-16T05:54:23;8.37;;;3.53;;
16673;SDS011;8450;52.654;10.326;2024-01-16T05:56:49;9.77;;;3.77;;
16673;SDS011;8450;52.654;10.326;2024-01-16T05:59:15;5.60;;;2.63;;
16673;SDS011;8450;52.654;10.326;2024-01-16T06:01:40;10.40;;;4.20;;
16673;SDS011;8450;52.654;10.326;2024-01-16T06:04:06;8.10;;;3.30;;
16673;SDS011;8450;52.654;10.326;2024-01-16T06:06:32;9.10;;;3.53;;
16673;SDS011;8450;52.654;10.326;2024-01-16T06:08:58;6.13;;;3.97;;
16673;SDS011;8450;52.654;10.326;2024-01-16T06:11:31;9.20;;;3.93;;
16673;SDS011;8450;52.654;10.326;2024-01-16T06:13:58;8.60;;;3.70;;
16673;SDS011;8450;52.654;10.326;2024-01-16T06:16:24;4.83;;;3.07;;
16673;SDS011;8450;52.654;10.326;2024-01-16T06:18:50;12.97;;;4.17;;
16673;SDS011;8450;52.654;10.326;2024-01-16T06:21:16;6.47;;;3.17;;
16673;SDS011;8450;52.654;10.326;2024-01-16T06:23:42;9.57;;;4.00;;
16673;SDS011;8450;52.654;10.326;2024-01-16T06:26:08;6.33;;;3.43;;
16673;SDS011;8450;52.654;10.326;2024-01-16T06:28:34;7.33;;;3.80;;
16673;SDS011;8450;52.654;10.326;2024-01-16T06:30:59;9.73;;;3.67;;
16673;SDS011;8450;52.654;10.326;2024-01-16T06:33:25;6.70;;;3.70;;
16673;SDS011;8450;52.654;10.326;2024-01-16T06:35:51;5.60;;;3.17;;
16673;SDS011;8450;52.654;10.326;2024-01-16T06:38:16;6.67;;;3.40;;
16673;SDS011;8450;52.654;10.326;2024-01-16T06:40:42;7.73;;;3.60;;
16673;SDS011;8450;52.654;10.326;2024-01-16T06:43:07;6.37;;;2.90;;
16673;SDS011;8450;52.654;10.326;2024-01-16T06:45:33;8.13;;;3.97;;
16673;SDS011;8450;52.654;10.326;2024-01-16T06:47:59;9.90;;;3.23;;
16673;SDS011;8450;52.654;10.326;2024-01-16T06:50:25;12.73;;;3.40;;
16673;SDS011;8450;52.654;10.326;2024-01-16T06:52:50;6.53;;;3.93;;
16673;SDS011;8450;52.654;10.326;2024-01-16T06:55:16;5.47;;;2.93;;
16673;SDS011;8450;52.654;10.326;2024-01-16T06:57:41;3.63;;;2.67;;
16673;SDS011;8450;52.654;10.326;2024-01-16T07:00:07;6.50;;;3.37;;
16673;SDS011;8450;52.654;10.326;2024-01-16T07:02:33;7.80;;;5.50;;
16673;SDS011;8450;52.654;10.326;2024-01-16T07:04:58;8.50;;;3.00;;
16673;SDS011;8450;52.654;10.326;2024-01-16T07:07:24;13.10;;;3.83;;
16673;SDS011;8450;52.654;10.326;2024-01-16T07:09:50;9.83;;;3.20;;
16673;SDS011;8450;52.654;10.326;2024-01-16T07:12:16;8.90;;;3.60;;
16673;SDS011;8450;52.654;10.326;2024-01-16T07:14:41;11.17;;;4.00;;
16673;SDS011;8450;52.654;10.326;2024-01-16T07:17:07;6.63;;;2.80;;
16673;SDS011;8450;52.654;10.326;2024-01-16T07:19:33;7.43;;;3.67;;
16673;SDS011;8450;52.654;10.326;2024-01-16T07:21:58;5.80;;;2.53;;
16673;SDS011;8450;52.654;10.326;2024-01-16T07:24:24;6.63;;;3.03;;
16673;SDS011;8450;52.654;10.326;2024-01-16T07:26:49;5.37;;;3.17;;
16673;SDS011;8450;52.654;10.326;2024-01-16T07:29:15;7.70;;;3.70;;
16673;SDS011;8450;52.654;10.326;2024-01-16T07:31:40;7.73;;;3.83;;
16673;SDS011;8450;52.654;10.326;2024-01-16T07:34:06;6.43;;;3.30;;
16673;SDS011;8450;52.654;10.326;2024-01-16T07:36:32;5.33;;;3.17;;
16673;SDS011;8450;52.654;10.326;2024-01-16T07:38:57;15.70;;;4.33;;
16673;SDS011;8450;52.654;10.326;2024-01-16T07:41:23;9.73;;;3.10;;
16673;SDS011;8450;52.654;10.326;2024-01-16T07:43:48;7.03;;;3.43;;
16673;SDS011;8450;52.654;10.326;2024-01-16T07:46:14;10.67;;;3.53;;
16673;SDS011;8450;52.654;10.326;2024-01-16T07:48:39;7.43;;;3.87;;
16673;SDS011;8450;52.654;10.326;2024-01-16T07:51:05;5.10;;;3.00;;
16673;SDS011;8450;52.654;10.326;2024-01-16T07:53:31;8.70;;;3.90;;
16673;SDS011;8450;52.654;10.326;2024-01-16T07:55:56;6.00;;;3.20;;
16673;SDS011;8450;52.654;10.326;2024-01-16T07:58:22;7.90;;;4.07;;
16673;SDS011;8450;52.654;10.326;2024-01-16T08:00:48;5.23;;;3.27;;
16673;SDS011;8450;52.654;10.326;2024-01-16T08:03:14;9.43;;;4.30;;
16673;SDS011;8450;52.654;10.326;2024-01-16T08:05:39;7.63;;;3.30;;
16673;SDS011;8450;52.654;10.326;2024-01-16T08:08:07;8.03;;;3.40;;
16673;SDS011;8450;52.654;10.326;2024-01-16T08:10:34;9.13;;;4.13;;
16673;SDS011;8450;52.654;10.326;2024-01-16T08:13:00;10.40;;;4.07;;
16673;SDS011;8450;52.654;10.326;2024-01-16T08:15:25;5.70;;;2.80;;
16673;SDS011;8450;52.654;10.326;2024-01-16T08:17:51;5.43;;;3.80;;
16673;SDS011;8450;52.654;10.326;2024-01-16T08:20:16;12.67;;;4.60;;
16673;SDS011;8450;52.654;10.326;2024-01-16T08:22:42;5.20;;;3.73;;
16673;SDS011;8450;52.654;10.326;2024-01-16T08:25:07;6.17;;;3.90;;
16673;SDS011;8450;52.654;10.326;2024-01-16T08:27:33;13.70;;;4.30;;
16673;SDS011;8450;52.654;10.326;2024-01-16T08:29:59;11.67;;;4.23;;
16673;SDS011;8450;52.654;10.326;2024-01-16T08:32:25;12.27;;;4.77;;
16673;SDS011;8450;52.654;10.326;2024-01-16T08:34:51;12.03;;;5.30;;
16673;SDS011;8450;52.654;10.326;2024-01-16T08:37:17;13.93;;;4.13;;
16673;SDS011;8450;52.654;10.326;2024-01-16T08:39:42;10.03;;;5.83;;
16673;SDS011;8450;52.654;10.326;2024-01-16T08:42:08;11.53;;;4.27;;
16673;SDS011;8450;52.654;10.326;2024-01-16T08:44:37;7.57;;;4.43;;
16673;SDS011;8450;52.654;10.326;2024-01-16T08:47:03;12.30;;;5.80;;
16673;SDS011;8450;52.654;10.326;2024-01-16T08:49:31;8.53;;;4.97;;
16673;SDS011;8450;52.654;10.326;2024-01-16T08:51:59;8.80;;;5.00;;
16673;SDS011;8450;52.654;10.326;2024-01-16T08:54:25;9.20;;;5.23;;
16673;SDS011;8450;52.654;10.326;2024-01-16T08:56:51;12.27;;;6.63;;
16673;SDS011;8450;52.654;10.326;2024-01-16T08:59:17;12.17;;;6.07;;
16673;SDS011;8450;52.654;10.326;2024-01-16T09:01:43;11.73;;;5.33;;
16673;SDS011;8450;52.654;10.326;2024-01-16T09:04:09;11.67;;;5.17;;
16673;SDS011;8450;52.654;10.326;2024-01-16T09:06:35;13.33;;;5.60;;
16673;SDS011;8450;52.654;10.326;2024-01-16T09:09:01;15.77;;;5.90;;
16673;SDS011;8450;52.654;10.326;2024-01-16T09:11:28;10.87;;;5.77;;
16673;SDS011;8450;52.654;10.326;2024-01-16T09:13:54;9.43;;;5.13;;
16673;SDS011;8450;52.654;10.326;2024-01-16T09:16:19;10.77;;;5.73;;
16673;SDS011;8450;52.654;10.326;2024-01-16T09:18:45;11.67;;;5.30;;
16673;SDS011;8450;52.654;10.326;2024-01-16T09:21:11;9.43;;;5.27;;
16673;SDS011;8450;52.654;10.326;2024-01-16T09:23:36;9.50;;;5.23;;
16673;SDS011;8450;52.654;10.326;2024-01-16T09:26:02;11.93;;;5.50;;
16673;SDS011;8450;52.654;10.326;2024-01-16T09:28:28;12.27;;;7.23;;
16673;SDS011;8450;52.654;10.326;2024-01-16T09:30:54;11.60;;;5.60;;
16673;SDS011;8450;52.654;10.326;2024-01-16T09:33:21;10.67;;;4.83;;
16673;SDS011;8450;52.654;10.326;2024-01-16T09:35:47;14.27;;;5.67;;
16673;SDS011;8450;52.654;10.326;2024-01-16T09:38:13;11.87;;;5.67;;
16673;SDS011;8450;52.654;10.326;2024-01-16T09:40:39;13.03;;;7.63;;
16673;SDS011;8450;52.654;10.326;2024-01-16T09:43:05;14.27;;;6.93;;
16673;SDS011;8450;52.654;10.326;2024-01-16T09:45:33;10.40;;;6.80;;
16673;SDS011;8450;52.654;10.326;2024-01-16T09:48:02;12.67;;;6.27;;
16673;SDS011;8450;52.654;10.326;2024-01-16T09:50:30;11.30;;;6.60;;
16673;SDS011;8450;52.654;10.326;2024-01-16T09:52:55;8.40;;;5.10;;
16673;SDS011;8450;52.654;10.326;2024-01-16T09:55:21;9.00;;;6.13;;
16673;SDS011;8450;52.654;10.326;2024-01-16T09:57:47;6.13;;;4.13;;
16673;SDS011;8450;52.654;10.326;2024-01-16T10:00:17;13.97;;;7.10;;
16673;SDS011;8450;52.654;10.326;2024-01-16T10:02:43;12.40;;;7.23;;
16673;SDS011;8450;52.654;10.326;2024-01-16T10:05:11;13.63;;;7.03;;
16673;SDS011;8450;52.654;10.326;2024-01-16T10:07:38;10.47;;;6.00;;
16673;SDS011;8450;52.654;10.326;2024-01-16T10:10:05;13.67;;;6.87;;
16673;SDS011;8450;52.654;10.326;2024-01-16T10:12:32;9.70;;;5.30;;
16673;SDS011;8450;52.654;10.326;2024-01-16T10:14:58;10.40;;;5.87;;
16673;SDS011;8450;52.654;10.326;2024-01-16T10:17:37;14.00;;;6.20;;
16673;SDS011;8450;52.654;10.326;2024-01-16T10:20:04;13.57;;;6.40;;
16673;SDS011;8450;52.654;10.326;2024-01-16T10:22:30;13.63;;;6.93;;
16673;SDS011;8450;52.654;10.326;2024-01-16T10:25:06;9.70;;;5.13;;
16673;SDS011;8450;52.654;10.326;2024-01-16T10:27:33;13.47;;;6.70;;
16673;SDS011;8450;52.654;10.326;2024-01-16T10:30:00;11.03;;;6.10;;
16673;SDS011;8450;52.654;10.326;2024-01-16T10:32:30;12.97;;;6.90;;
16673;SDS011;8450;52.654;10.326;2024-01-16T10:35:03;9.97;;;4.53;;
16673;SDS011;8450;52.654;10.326;2024-01-16T10:37:43;13.33;;;5.77;;
16673;SDS011;8450;52.654;10.326;2024-01-16T10:42:46;8.63;;;5.27;;
16673;SDS011;8450;52.654;10.326;2024-01-16T10:45:21;10.07;;;5.30;;
16673;SDS011;8450;52.654;10.326;2024-01-16T10:47:48;10.53;;;5.50;;
16673;SDS011;8450;52.654;10.326;2024-01-16T10:50:25;5.03;;;3.87;;
16673;SDS011;8450;52.654;10.326;2024-01-16T10:52:50;13.17;;;6.77;;
16673;SDS011;8450;52.654;10.326;2024-01-16T10:55:21;11.37;;;6.47;;
16673;SDS011;8450;52.654;10.326;2024-01-16T10:57:48;11.83;;;6.27;;
16673;SDS011;8450;52.654;10.326;2024-01-16T11:00:16;13.67;;;6.83;;
16673;SDS011;8450;52.654;10.326;2024-01-16T11:02:48;10.97;;;6.60;;
16673;SDS011;8450;52.654;10.326;2024-01-16T11:05:16;10.57;;;5.63;;
16673;SDS011;8450;52.654;10.326;2024-01-16T11:07:42;13.63;;;6.13;;
16673;SDS011;8450;52.654;10.326;2024-01-16T11:10:09;19.57;;;8.80;;
16673;SDS011;8450;52.654;10.326;2024-01-16T11:12:35;10.40;;;5.70;;
16673;SDS011;8450;52.654;10.326;2024-01-16T11:15:04;16.17;;;6.40;;
16673;SDS011;8450;52.654;10.326;2024-01-16T11:17:32;10.63;;;6.07;;
16673;SDS011;8450;52.654;10.326;2024-01-16T11:20:02;11.77;;;6.30;;
16673;SDS011;8450;52.654;10.326;2024-01-16T11:22:31;11.27;;;6.43;;
16673;SDS011;8450;52.654;10.326;2024-01-16T11:25:13;15.60;;;7.33;;
16673;SDS011;8450;52.654;10.326;2024-01-16T11:27:39;13.93;;;6.63;;
16673;SDS011;8450;52.654;10.326;2024-01-16T11:30:07;12.30;;;6.77;;
16673;SDS011;8450;52.654;10.326;2024-01-16T11:32:37;11.83;;;5.90;;
16673;SDS011;8450;52.654;10.326;2024-01-16T11:35:05;10.00;;;6.20;;
16673;SDS011;8450;52.654;10.326;2024-01-16T11:37:36;16.70;;;6.17;;
16673;SDS011;8450;52.654;10.326;2024-01-16T11:40:20;12.00;;;5.60;;
16673;SDS011;8450;52.654;10.326;2024-01-16T11:42:46;13.07;;;6.03;;
16673;SDS011;8450;52.654;10.326;2024-01-16T11:48:09;16.17;;;7.57;;
16673;SDS011;8450;52.654;10.326;2024-01-16T11:50:39;10.77;;;5.57;;
16673;SDS011;8450;52.654;10.326;2024-01-16T11:53:05;12.83;;;6.13;;
16673;SDS011;8450;52.654;10.326;2024-01-16T11:55:31;11.93;;;5.93;;
16673;SDS011;8450;52.654;10.326;2024-01-16T12:00:50;8.73;;;5.90;;
16673;SDS011;8450;52.654;10.326;2024-01-16T12:03:18;12.07;;;7.17;;
16673;SDS011;8450;52.654;10.326;2024-01-16T12:05:54;13.90;;;6.73;;
16673;SDS011;8450;52.654;10.326;2024-01-16T12:08:23;16.33;;;6.53;;
16673;SDS011;8450;52.654;10.326;2024-01-16T12:10:49;13.27;;;6.87;;
16673;SDS011;8450;52.654;10.326;2024-01-16T12:13:15;6.13;;;4.73;;
16673;SDS011;8450;52.654;10.326;2024-01-16T12:15:42;12.87;;;7.20;;
16673;SDS011;8450;52.654;10.326;2024-01-16T12:18:08;9.53;;;6.13;;
16673;SDS011;8450;52.654;10.326;2024-01-16T12:20:36;8.53;;;5.27;;
16673;SDS011;8450;52.654;10.326;2024-01-16T12:23:05;15.73;;;6.27;;
16673;SDS011;8450;52.654;10.326;2024-01-16T12:25:35;10.77;;;6.20;;
16673;SDS011;8450;52.654;10.326;2024-01-16T12:28:05;7.47;;;5.13;;
16673;SDS011;8450;52.654;10.326;2024-01-16T12:30:33;9.60;;;5.60;;
16673;SDS011;8450;52.654;10.326;2024-01-16T12:33:06;11.60;;;5.07;;
16673;SDS011;8450;52.654;10.326;2024-01-16T12:35:33;7.33;;;5.00;;
16673;SDS011;8450;52.654;10.326;2024-01-16T12:38:03;12.13;;;5.27;;
16673;SDS011;8450;52.654;10.326;2024-01-16T12:40:39;10.23;;;6.43;;
16673;SDS011;8450;52.654;10.326;2024-01-16T12:43:06;7.63;;;5.63;;
16673;SDS011;8450;52.654;10.326;2024-01-16T12:45:34;10.53;;;6.17;;
16673;SDS011;8450;52.654;10.326;2024-01-16T12:48:00;11.73;;;6.23;;
16673;SDS011;8450;52.654;10.326;2024-01-16T12:50:29;10.10;;;5.07;;
16673;SDS011;8450;52.654;10.326;2024-01-16T12:53:03;8.47;;;5.00;;
16673;SDS011;8450;52.654;10.326;2024-01-16T12:55:33;10.47;;;6.80;;
16673;SDS011;8450;52.654;10.326;2024-01-16T13:00:42;10.77;;;6.10;;
16673;SDS011;8450;52.654;10.326;2024-01-16T13:03:14;12.03;;;7.30;;
16673;SDS011;8450;52.654;10.326;2024-01-16T13:05:44;8.47;;;6.73;;
16673;SDS011;8450;52.654;10.326;2024-01-16T13:08:17;13.80;;;9.23;;
16673;SDS011;8450;52.654;10.326;2024-01-16T13:10:44;11.40;;;5.93;;
16673;SDS011;8450;52.654;10.326;2024-01-16T13:13:13;14.70;;;7.53;;
16673;SDS011;8450;52.654;10.326;2024-01-16T13:15:40;16.77;;;8.60;;
16673;SDS011;8450;52.654;10.326;2024-01-16T13:18:06;11.00;;;6.10;;
16673;SDS011;8450;52.654;10.326;2024-01-16T13:20:41;10.93;;;6.43;;
16673;SDS011;8450;52.654;10.326;2024-01-16T13:23:07;10.80;;;8.37;;
16673;SDS011;8450;52.654;10.326;2024-01-16T13:25:34;10.27;;;6.07;;
16673;SDS011;8450;52.654;10.326;2024-01-16T13:27:59;11.67;;;6.87;;
16673;SDS011;8450;52.654;10.326;2024-01-16T13:30:25;12.83;;;7.43;;
16673;SDS011;8450;52.654;10.326;2024-01-16T13:32:50;14.30;;;6.87;;
16673;SDS011;8450;52.654;10.326;2024-01-16T13:35:16;12.77;;;5.87;;
16673;SDS011;8450;52.654;10.326;2024-01-16T13:37:42;8.33;;;4.10;;
16673;SDS011;8450;52.654;10.326;2024-01-16T13:40:07;8.37;;;6.53;;
16673;SDS011;8450;52.654;10.326;2024-01-16T13:42:40;8.23;;;5.10;;
16673;SDS011;8450;52.654;10.326;2024-01-16T13:45:06;8.57;;;6.47;;
16673;SDS011;8450;52.654;10.326;2024-01-16T13:47:33;11.67;;;5.80;;
16673;SDS011;8450;52.654;10.326;2024-01-16T13:50:04;10.03;;;4.70;;
16673;SDS011;8450;52.654;10.326;2024-01-16T13:52:30;3.23;;;2.27;;
16673;SDS011;8450;52.654;10.326;2024-01-16T13:54:55;7.20;;;5.37;;
16673;SDS011;8450;52.654;10.326;2024-01-16T13:57:22;10.83;;;5.33;;
16673;SDS011;8450;52.654;10.326;2024-01-16T13:59:48;10.10;;;5.07;;
16673;SDS011;8450;52.654;10.326;2024-01-16T14:02:14;9.03;;;4.30;;
16673;SDS011;8450;52.654;10.326;2024-01-16T14:04:40;11.50;;;5.77;;
16673;SDS011;8450;52.654;10.326;2024-01-16T14:07:05;8.87;;;5.20;;
16673;SDS011;8450;52.654;10.326;2024-01-16T14:09:34;10.10;;;5.40;;
16673;SDS011;8450;52.654;10.326;2024-01-16T14:12:00;8.23;;;5.50;;
16673;SDS011;8450;52.654;10.326;2024-01-16T14:14:26;5.33;;;3.30;;
16673;SDS011;8450;52.654;10.326;2024-01-16T14:16:52;7.00;;;4.40;;
16673;SDS011;8450;52.654;10.326;2024-01-16T14:19:19;13.43;;;5.13;;
16673;SDS011;8450;52.654;10.326;2024-01-16T14:21:45;12.70;;;5.93;;
16673;SDS011;8450;52.654;10.326;2024-01-16T14:24:12;12.70;;;5.43;;
16673;SDS011;8450;52.654;10.326;2024-01-16T14:26:38;10.93;;;6.70;;
16673;SDS011;8450;52.654;10.326;2024-01-16T14:29:09;8.70;;;5.57;;
16673;SDS011;8450;52.654;10.326;2024-01-16T14:31:35;10.17;;;5.63;;
16673;SDS011;8450;52.654;10.326;2024-01-16T14:34:00;10.10;;;5.63;;
16673;SDS011;8450;52.654;10.326;2024-01-16T14:36:26;10.93;;;5.50;;
16673;SDS011;8450;52.654;10.326;2024-01-16T14:38:51;6.97;;;5.03;;
16673;SDS011;8450;52.654;10.326;2024-01-16T14:41:17;7.70;;;4.73;;
16673;SDS011;8450;52.654;10.326;2024-01-16T14:43:42;10.30;;;5.63;;
16673;SDS011;8450;52.654;10.326;2024-01-16T14:46:08;10.60;;;5.33;;
16673;SDS011;8450;52.654;10.326;2024-01-16T14:48:37;10.53;;;5.33;;
16673;SDS011;8450;52.654;10.326;2024-01-16T14:51:03;7.33;;;5.27;;
16673;SDS011;8450;52.654;10.326;2024-01-16T14:53:29;14.17;;;6.17;;